Time;durP1;ratioP1;P1;durP2;ratioP2;P2;SDS_P1;SDS_P2;PMS_P1;PMS_P2;Temp;Humidity;BMP_temperature;BMP_pressure;BME280_temperature;BME280_humidity;BME280_pressure;Samples;Min_cycle;Max_cycle;Signal;HPM_P1;HPM_P2
2023/10/03 00:02:41;;;;;;;0.10;0.10;;;;;;;16.50;100.00;99041.50;5111607;28;20187;-57
2023/10/03 00:05:31;;;;;;;0.10;0.10;;;;;;;16.44;100.00;99037.59;5112869;28;20233;-57
2023/10/03 00:08:19;;;;;;;0.10;0.10;;;;;;;16.39;100.00;99039.81;5114220;28;20256;-57
2023/10/03 00:11:17;;;;;;;0.10;0.10;;;;;;;16.53;100.00;99044.78;5116897;28;20205;-56
2023/10/03 00:14:07;;;;;;;0.10;0.10;;;;;;;16.57;100.00;99035.47;5116898;28;20186;-57
2023/10/03 00:16:54;;;;;;;0.10;0.10;;;;;;;16.53;100.00;99035.91;5115844;28;20260;-57
2023/10/03 00:19:41;;;;;;;0.20;0.20;;;;;;;16.46;100.00;99034.75;5116755;28;20202;-57
2023/10/03 00:22:28;;;;;;;0.10;0.10;;;;;;;16.44;100.00;99040.25;5116688;28;20198;-57
2023/10/03 00:25:19;;;;;;;0.10;0.10;;;;;;;16.05;100.00;99033.13;5116681;28;20304;-57
2023/10/03 00:28:07;;;;;;;0.10;0.10;;;;;;;15.51;100.00;99028.91;5116551;28;20255;-57
2023/10/03 00:30:54;;;;;;;0.10;0.10;;;;;;;15.48;100.00;99013.19;5116472;28;20330;-56
2023/10/03 00:33:42;;;;;;;0.10;0.10;;;;;;;15.30;100.00;99007.59;5115010;28;20247;-57
2023/10/03 00:36:31;;;;;;;0.10;0.10;;;;;;;15.13;100.00;98993.03;5116426;28;20218;-56
2023/10/03 00:39:18;;;;;;;0.20;0.20;;;;;;;15.13;100.00;98990.34;5115383;28;20256;-57
2023/10/03 00:42:09;;;;;;;0.10;0.10;;;;;;;15.19;100.00;98997.84;5116041;28;20197;-57
2023/10/03 00:44:57;;;;;;;0.13;0.13;;;;;;;15.20;100.00;98993.34;5116208;28;20198;-57
2023/10/03 00:47:43;;;;;;;0.10;0.10;;;;;;;15.12;100.00;98991.34;5114623;28;20221;-57
2023/10/03 00:50:32;;;;;;;0.10;0.10;;;;;;;15.01;100.00;98986.06;5115995;28;20716;-57
2023/10/03 00:53:18;;;;;;;0.10;0.10;;;;;;;15.19;100.00;98981.84;5116229;28;20232;-56
2023/10/03 00:56:09;;;;;;;0.20;0.20;;;;;;;15.27;100.00;98987.38;5116096;28;20244;-56
2023/10/03 00:58:57;;;;;;;0.20;0.20;;;;;;;15.35;100.00;98990.22;5115880;28;20190;-57
2023/10/03 01:01:46;;;;;;;0.10;0.10;;;;;;;15.35;100.00;98986.72;5115892;28;20194;-57
2023/10/03 01:04:34;;;;;;;0.10;0.10;;;;;;;15.58;100.00;98976.69;5095430;28;20215;-57
2023/10/03 01:07:23;;;;;;;0.17;0.17;;;;;;;15.87;100.00;98982.16;5095033;28;20214;-56
2023/10/03 01:10:12;;;;;;;0.10;0.10;;;;;;;16.00;100.00;98985.44;5095332;28;20214;-57
2023/10/03 01:13:08;;;;;;;0.20;0.20;;;;;;;15.94;100.00;98989.50;5095314;28;20271;-57
2023/10/03 01:15:55;;;;;;;0.20;0.20;;;;;;;15.83;100.00;98991.44;5095199;28;20195;-57
2023/10/03 01:18:44;;;;;;;0.20;0.20;;;;;;;15.29;100.00;98979.22;5093456;28;20194;-56
2023/10/03 01:21:32;;;;;;;0.20;0.20;;;;;;;15.14;100.00;98973.38;5095100;28;20190;-57
2023/10/03 01:24:24;;;;;;;0.10;0.10;;;;;;;15.28;100.00;98975.72;5094024;28;20222;-56
2023/10/03 01:27:15;;;;;;;0.17;0.17;;;;;;;15.38;100.00;98975.75;5094743;28;20222;-56
2023/10/03 01:30:02;;;;;;;0.10;0.10;;;;;;;15.35;100.00;98965.38;5094792;28;20237;-57
2023/10/03 01:32:53;;;;;;;0.10;0.10;;;;;;;15.41;100.00;98965.66;5093237;28;20194;-56
2023/10/03 01:35:40;;;;;;;0.10;0.10;;;;;;;15.45;100.00;98953.75;5094748;28;20206;-57
2023/10/03 01:38:28;;;;;;;0.20;0.20;;;;;;;15.23;100.00;98953.91;5094573;28;20195;-56
2023/10/03 01:41:16;;;;;;;0.10;0.10;;;;;;;15.20;100.00;98964.00;5094701;28;20202;-56
2023/10/03 01:44:03;;;;;;;0.10;0.10;;;;;;;15.22;100.00;98960.22;5094754;28;20191;-56
2023/10/03 01:46:50;;;;;;;0.10;0.10;;;;;;;15.20;100.00;98950.66;5092779;28;20214;-56
2023/10/03 01:49:38;;;;;;;0.10;0.10;;;;;;;15.16;100.00;98947.44;5094426;28;20199;-56
2023/10/03 01:52:26;;;;;;;0.10;0.10;;;;;;;15.04;100.00;98945.78;5094499;28;20214;-56
2023/10/03 01:55:14;;;;;;;0.10;0.10;;;;;;;15.13;100.00;98943.19;5093158;28;20361;-56
2023/10/03 01:58:03;;;;;;;0.10;0.10;;;;;;;15.02;100.00;98943.25;5093445;28;20236;-56
2023/10/03 02:00:51;;;;;;;0.20;0.20;;;;;;;14.97;100.00;98941.97;5093335;28;20195;-56
2023/10/03 02:03:39;;;;;;;0.10;0.10;;;;;;;14.98;100.00;98946.34;5091808;28;20218;-56
2023/10/03 02:06:27;;;;;;;0.10;0.10;;;;;;;14.92;100.00;98945.03;5094032;28;20218;-56
2023/10/03 02:09:14;;;;;;;0.10;0.10;;;;;;;14.96;100.00;98932.25;5093943;28;20226;-56
2023/10/03 02:12:02;;;;;;;0.10;0.10;;;;;;;14.96;100.00;98927.81;5094110;28;20198;-56
2023/10/03 02:14:50;;;;;;;0.10;0.10;;;;;;;15.00;100.00;98921.22;5092973;28;20190;-56
2023/10/03 02:17:37;;;;;;;0.10;0.10;;;;;;;15.08;100.00;98917.91;5092850;28;20187;-56
2023/10/03 02:20:25;;;;;;;0.10;0.10;;;;;;;15.08;100.00;98910.75;5092873;28;20544;-56
2023/10/03 02:23:17;;;;;;;0.10;0.10;;;;;;;14.96;100.00;98901.13;5093959;28;20203;-56
2023/10/03 02:26:09;;;;;;;0.10;0.10;;;;;;;14.97;100.00;98901.97;5092849;28;20194;-56
2023/10/03 02:28:59;;;;;;;0.10;0.10;;;;;;;14.98;100.00;98893.00;5093852;28;20261;-57
2023/10/03 02:31:47;;;;;;;0.10;0.10;;;;;;;15.15;100.00;98885.22;5091850;28;20195;-56
2023/10/03 02:34:34;;;;;;;0.10;0.10;;;;;;;15.09;100.00;98876.91;5093761;28;20194;-56
2023/10/03 02:37:23;;;;;;;0.10;0.10;;;;;;;15.05;100.00;98881.63;5093740;28;20306;-56
2023/10/03 02:40:10;;;;;;;0.10;0.10;;;;;;;15.10;100.00;98886.59;5092587;28;20190;-56
2023/10/03 02:42:59;;;;;;;0.10;0.10;;;;;;;15.09;100.00;98880.41;5093493;28;20202;-56
2023/10/03 02:45:48;;;;;;;0.10;0.10;;;;;;;15.03;100.00;98878.25;5092473;28;20268;-56
2023/10/03 02:48:36;;;;;;;0.10;0.10;;;;;;;15.15;100.00;98866.56;5090801;28;20704;-56
2023/10/03 02:51:24;;;;;;;0.10;0.10;;;;;;;15.22;100.00;98855.31;5092208;28;20231;-57
2023/10/03 02:54:11;;;;;;;0.10;0.10;;;;;;;15.20;100.00;98859.94;5092410;28;20190;-56
2023/10/03 02:56:58;;;;;;;0.10;0.10;;;;;;;15.14;100.00;98861.31;5093351;28;20258;-56
2023/10/03 02:59:46;;;;;;;0.10;0.10;;;;;;;15.36;100.00;98853.13;5093212;28;20183;-57
2023/10/03 03:02:33;;;;;;;0.10;0.10;;;;;;;15.29;100.00;98857.31;5092070;28;20314;-57
2023/10/03 03:05:22;;;;;;;0.10;0.10;;;;;;;15.42;100.00;98849.91;5092250;28;20322;-57
2023/10/03 03:08:22;;;;;;;0.10;0.10;;;;;;;15.37;100.00;98838.81;5091546;28;20242;-56
2023/10/03 03:11:12;;;;;;;0.10;0.10;;;;;;;15.39;100.00;98836.84;5092160;28;20199;-56
2023/10/03 03:13:59;;;;;;;0.10;0.10;;;;;;;15.41;100.00;98842.88;5093156;28;20187;-57
2023/10/03 03:16:48;;;;;;;0.10;0.10;;;;;;;15.38;100.00;98845.00;5093062;28;20194;-57
2023/10/03 03:19:36;;;;;;;0.10;0.10;;;;;;;15.36;100.00;98845.13;5093057;28;20213;-56
2023/10/03 03:22:25;;;;;;;0.10;0.10;;;;;;;15.48;100.00;98839.69;5093033;28;20191;-57
2023/10/03 03:25:13;;;;;;;0.10;0.10;;;;;;;15.53;100.00;98838.25;5093083;28;20193;-57
2023/10/03 03:27:59;;;;;;;0.10;0.10;;;;;;;15.54;100.00;98842.66;5092780;28;20219;-57
2023/10/03 03:30:46;;;;;;;0.10;0.10;;;;;;;15.51;100.00;98834.06;5092919;28;20207;-56
2023/10/03 03:33:33;;;;;;;0.10;0.10;;;;;;;15.52;100.00;98820.56;5091555;28;20383;-56
2023/10/03 03:36:22;;;;;;;0.10;0.10;;;;;;;15.55;100.00;98824.81;5092890;28;20194;-56
2023/10/03 03:39:15;;;;;;;0.10;0.10;;;;;;;15.54;100.00;98825.75;5092968;28;20195;-57
2023/10/03 03:42:02;;;;;;;0.10;0.10;;;;;;;15.59;100.00;98831.53;5093907;28;20221;-56
2023/10/03 03:44:49;;;;;;;0.10;0.10;;;;;;;15.43;100.00;98824.91;5096887;28;20201;-56
2023/10/03 03:47:36;;;;;;;0.10;0.10;;;;;;;15.53;100.00;98824.06;5095415;28;20743;-57
2023/10/03 03:50:29;;;;;;;0.10;0.10;;;;;;;15.45;100.00;98814.94;5096784;28;20286;-57
2023/10/03 03:53:21;;;;;;;0.10;0.10;;;;;;;15.50;100.00;98819.03;5096763;28;20190;-57
2023/10/03 03:56:12;;;;;;;0.10;0.10;;;;;;;15.43;100.00;98816.88;5096630;28;20256;-57
2023/10/03 03:59:00;;;;;;;0.10;0.10;;;;;;;15.48;100.00;98805.81;5096777;28;20183;-57
2023/10/03 04:01:47;;;;;;;0.10;0.10;;;;;;;15.64;100.00;98806.16;5096285;28;20540;-57
2023/10/03 04:04:34;;;;;;;0.20;0.20;;;;;;;15.43;100.00;98792.03;5096481;28;20249;-57
2023/10/03 04:07:21;;;;;;;0.10;0.10;;;;;;;15.35;100.00;98792.75;5096617;28;20207;-56
2023/10/03 04:10:10;;;;;;;0.10;0.10;;;;;;;15.48;100.00;98796.97;5096521;28;20206;-57
2023/10/03 04:12:59;;;;;;;0.10;0.10;;;;;;;15.45;100.00;98784.75;5096433;28;20206;-57
2023/10/03 04:16:11;;;;;;;0.10;0.10;;;;;;;15.50;100.00;98784.31;5096522;28;20306;-56
2023/10/03 04:18:58;;;;;;;0.10;0.10;;;;;;;15.65;100.00;98789.16;5099316;28;20206;-57
2023/10/03 04:21:45;;;;;;;0.10;0.10;;;;;;;15.74;100.00;98782.97;5116772;28;20194;-56
2023/10/03 04:24:32;;;;;;;0.10;0.10;;;;;;;15.61;100.00;98794.91;5116784;28;20190;-57
2023/10/03 04:27:19;;;;;;;0.10;0.10;;;;;;;15.66;100.00;98790.84;5115112;28;20206;-57
2023/10/03 04:30:12;;;;;;;0.10;0.10;;;;;;;15.67;100.00;98787.19;5116536;28;20711;-56
2023/10/03 04:32:59;;;;;;;0.10;0.10;;;;;;;15.66;100.00;98780.16;5115135;28;20194;-57
2023/10/03 04:35:46;;;;;;;0.10;0.10;;;;;;;15.62;100.00;98778.75;5116198;28;20782;-57
2023/10/03 04:38:33;;;;;;;0.10;0.10;;;;;;;15.68;100.00;98780.84;5116457;28;20301;-56
2023/10/03 04:41:20;;;;;;;0.10;0.10;;;;;;;15.71;100.00;98780.56;5116317;28;20190;-56
2023/10/03 04:44:08;;;;;;;0.10;0.10;;;;;;;15.73;100.00;98777.78;5115968;28;20194;-57
2023/10/03 04:46:56;;;;;;;0.10;0.10;;;;;;;15.73;100.00;98785.78;5114899;28;20206;-57
2023/10/03 04:49:43;;;;;;;0.10;0.10;;;;;;;15.64;100.00;98790.16;5115860;28;20222;-56
2023/10/03 04:52:30;;;;;;;0.10;0.10;;;;;;;15.60;100.00;98788.72;5115855;28;20580;-57
2023/10/03 04:55:17;;;;;;;0.10;0.10;;;;;;;15.63;100.00;98780.44;5115187;28;20198;-57
2023/10/03 04:58:04;;;;;;;0.10;0.10;;;;;;;15.58;100.00;98773.78;5116048;28;20260;-57
2023/10/03 05:00:51;;;;;;;0.10;0.10;;;;;;;15.62;100.00;98777.91;5115732;28;20206;-57
2023/10/03 05:03:39;;;;;;;0.10;0.10;;;;;;;15.63;100.00;98772.44;5114559;28;20210;-57
2023/10/03 05:06:26;;;;;;;0.10;0.10;;;;;;;15.65;100.00;98774.97;5115712;28;20220;-57
2023/10/03 05:09:13;;;;;;;0.10;0.10;;;;;;;15.75;100.00;98781.16;5115186;28;20226;-57
2023/10/03 05:12:02;;;;;;;0.10;0.10;;;;;;;15.64;100.00;98776.78;5115731;28;20197;-57
2023/10/03 05:14:49;;;;;;;0.10;0.10;;;;;;;15.69;100.00;98784.38;5115606;28;20240;-57
2023/10/03 05:17:36;;;;;;;0.10;0.10;;;;;;;15.58;100.00;98776.47;5113991;28;20252;-56
2023/10/03 05:20:34;;;;;;;0.10;0.10;;;;;;;15.64;100.00;98784.81;5115450;28;20202;-56
2023/10/03 05:23:21;;;;;;;0.10;0.10;;;;;;;15.63;100.00;98783.13;5115603;28;20198;-57
2023/10/03 05:26:08;;;;;;;0.10;0.10;;;;;;;15.61;100.00;98778.88;5115483;28;20206;-57
2023/10/03 05:28:55;;;;;;;0.10;0.10;;;;;;;15.58;100.00;98784.47;5115217;28;20381;-57
2023/10/03 05:31:42;;;;;;;0.10;0.10;;;;;;;15.61;100.00;98789.56;5115166;28;20313;-56
2023/10/03 05:34:32;;;;;;;0.10;0.10;;;;;;;15.68;100.00;98794.22;5115295;28;20214;-56
2023/10/03 05:37:20;;;;;;;0.10;0.10;;;;;;;15.69;100.00;98779.03;5115121;28;20198;-56
2023/10/03 05:40:15;;;;;;;0.10;0.10;;;;;;;15.73;100.00;98780.47;5115157;28;20189;-56
2023/10/03 05:43:03;;;;;;;0.10;0.10;;;;;;;15.68;100.00;98774.69;5115182;28;20194;-56
2023/10/03 05:45:52;;;;;;;0.10;0.10;;;;;;;15.67;100.00;98776.50;5115108;28;20272;-57
2023/10/03 05:48:39;;;;;;;0.10;0.10;;;;;;;15.87;100.00;98784.53;5113517;28;20340;-57
2023/10/03 05:51:26;;;;;;;0.10;0.10;;;;;;;15.82;100.00;98787.59;5114979;28;20220;-57
2023/10/03 05:54:15;;;;;;;0.10;0.10;;;;;;;15.94;100.00;98781.16;5114810;28;20244;-57
2023/10/03 05:57:02;;;;;;;0.20;0.20;;;;;;;15.93;100.00;98776.81;5114906;28;20206;-57
2023/10/03 05:59:50;;;;;;;0.10;0.10;;;;;;;16.00;100.00;98779.72;5114811;28;20195;-57
2023/10/03 06:02:39;;;;;;;0.10;0.10;;;;;;;16.11;100.00;98786.75;5113407;28;20190;-57
2023/10/03 06:05:26;;;;;;;0.10;0.10;;;;;;;16.25;100.00;98775.63;5114715;28;20195;-56
2023/10/03 06:08:12;;;;;;;0.10;0.10;;;;;;;16.13;100.00;98780.28;5114081;28;20230;-57
2023/10/03 06:11:03;;;;;;;0.10;0.10;;;;;;;16.16;100.00;98777.31;5114294;28;20198;-57
2023/10/03 06:13:50;;;;;;;0.10;0.10;;;;;;;15.99;100.00;98786.91;5114338;28;20194;-56
2023/10/03 06:16:37;;;;;;;0.10;0.10;;;;;;;16.17;100.00;98797.72;5114571;28;20288;-56
2023/10/03 06:19:23;;;;;;;0.10;0.10;;;;;;;16.18;100.00;98794.06;5114314;28;20194;-57
2023/10/03 06:22:12;;;;;;;0.10;0.10;;;;;;;16.29;100.00;98807.25;5114301;28;20256;-56
2023/10/03 06:24:59;;;;;;;0.10;0.10;;;;;;;16.31;100.00;98815.16;5114286;28;20225;-57
2023/10/03 06:27:47;;;;;;;0.10;0.10;;;;;;;16.33;100.00;98815.84;5114254;28;20213;-56
2023/10/03 06:30:37;;;;;;;0.10;0.10;;;;;;;16.25;100.00;98811.22;5113631;28;20214;-57
2023/10/03 06:33:24;;;;;;;0.10;0.10;;;;;;;16.42;100.00;98814.16;5112617;28;20203;-56
2023/10/03 06:36:12;;;;;;;0.10;0.10;;;;;;;16.42;100.00;98822.19;5114057;28;20190;-57
2023/10/03 06:38:59;;;;;;;0.10;0.10;;;;;;;16.28;100.00;98808.25;5113906;28;20190;-56
2023/10/03 06:41:47;;;;;;;0.10;0.10;;;;;;;16.36;100.00;98822.72;5113959;28;20268;-57
2023/10/03 06:44:40;;;;;;;0.10;0.10;;;;;;;16.45;100.00;98813.84;5113007;28;20198;-57
2023/10/03 06:47:29;;;;;;;0.10;0.10;;;;;;;16.66;100.00;98817.19;5112441;28;20183;-56
2023/10/03 06:50:17;;;;;;;0.10;0.10;;;;;;;16.62;100.00;98806.94;5113379;28;20218;-57
2023/10/03 06:53:05;;;;;;;0.10;0.10;;;;;;;16.82;100.00;98798.72;5113804;28;20312;-56
2023/10/03 06:55:53;;;;;;;0.10;0.10;;;;;;;16.78;100.00;98804.50;5113686;28;20197;-56
2023/10/03 06:58:40;;;;;;;0.10;0.10;;;;;;;16.68;100.00;98806.31;5112440;28;20194;-56
2023/10/03 07:01:28;;;;;;;0.10;0.10;;;;;;;16.73;100.00;98785.38;5113735;28;20270;-56
2023/10/03 07:04:15;;;;;;;0.10;0.10;;;;;;;16.70;100.00;98799.06;5113539;28;20193;-56
2023/10/03 07:07:03;;;;;;;0.10;0.10;;;;;;;16.75;100.00;98812.81;5113553;28;20317;-56
2023/10/03 07:09:50;;;;;;;0.10;0.10;;;;;;;16.85;100.00;98806.44;5113149;28;20225;-56
2023/10/03 07:12:38;;;;;;;0.10;0.10;;;;;;;16.91;100.00;98814.88;5113451;28;20214;-57
2023/10/03 07:15:25;;;;;;;0.10;0.10;;;;;;;16.93;100.00;98813.75;5113383;28;20687;-56
2023/10/03 07:18:14;;;;;;;0.10;0.10;;;;;;;16.85;100.00;98813.63;5111757;28;20672;-57
2023/10/03 07:21:03;;;;;;;0.10;0.10;;;;;;;16.88;100.00;98830.22;5113442;28;20178;-57
2023/10/03 07:23:53;;;;;;;0.10;0.10;;;;;;;16.88;100.00;98835.56;5113343;28;20649;-56
2023/10/03 07:26:39;;;;;;;0.10;0.10;;;;;;;16.86;100.00;98824.19;5113308;28;20221;-56
2023/10/03 07:29:26;;;;;;;0.10;0.10;;;;;;;16.88;100.00;98824.03;5113156;28;20684;-56
2023/10/03 07:32:14;;;;;;;0.10;0.10;;;;;;;17.04;100.00;98829.59;5111947;28;20224;-57
2023/10/03 07:35:03;;;;;;;0.10;0.10;;;;;;;17.09;100.00;98832.69;5113269;28;20194;-57
2023/10/03 07:37:51;;;;;;;0.10;0.10;;;;;;;17.13;100.00;98842.09;5113213;28;20194;-56
2023/10/03 07:40:39;;;;;;;0.10;0.10;;;;;;;17.20;100.00;98839.69;5113232;28;20190;-56
2023/10/03 07:43:27;;;;;;;0.10;0.10;;;;;;;17.10;100.00;98837.06;5113030;28;20268;-56
2023/10/03 07:46:20;;;;;;;0.10;0.10;;;;;;;17.41;100.00;98834.94;5113215;28;20202;-57
2023/10/03 07:49:07;;;;;;;0.10;0.10;;;;;;;17.63;100.00;98843.53;5112611;28;20202;-57
2023/10/03 07:51:59;;;;;;;0.10;0.10;;;;;;;17.67;100.00;98840.41;5113012;28;20707;-57
2023/10/03 07:54:54;;;;;;;0.10;0.10;;;;;;;17.65;100.00;98828.16;5113229;28;20186;-57
2023/10/03 07:57:42;;;;;;;0.10;0.10;;;;;;;18.12;100.00;98826.13;5113205;28;20217;-56
2023/10/03 08:00:29;;;;;;;0.10;0.10;;;;;;;18.14;100.00;98813.41;5112925;28;20384;-56
2023/10/03 08:03:16;;;;;;;0.10;0.10;;;;;;;18.22;100.00;98807.28;5111622;28;20194;-56
2023/10/03 08:06:03;;;;;;;0.10;0.10;;;;;;;18.33;100.00;98812.38;5113099;28;20479;-57
2023/10/03 08:08:53;;;;;;;0.10;0.10;;;;;;;18.37;100.00;98813.78;5112839;28;20233;-56
2023/10/03 08:11:40;;;;;;;0.10;0.10;;;;;;;18.43;100.00;98817.66;5110037;28;20198;-56
2023/10/03 08:14:27;;;;;;;0.10;0.10;;;;;;;18.35;100.00;98831.03;5110018;28;20198;-57
2023/10/03 08:17:16;;;;;;;0.10;0.10;;;;;;;18.35;100.00;98839.06;5110083;28;20205;-57
2023/10/03 08:20:05;;;;;;;0.10;0.10;;;;;;;18.57;100.00;98831.34;5090971;28;20661;-57
2023/10/03 08:22:51;;;;;;;0.10;0.10;;;;;;;18.52;100.00;98827.44;5091725;28;20273;-56
2023/10/03 08:25:41;;;;;;;0.10;0.10;;;;;;;18.79;100.00;98851.50;5091601;28;20194;-56
2023/10/03 08:28:31;;;;;;;0.10;0.10;;;;;;;18.85;100.00;98845.50;5091230;28;20191;-57
2023/10/03 08:31:21;;;;;;;0.10;0.10;;;;;;;18.56;100.00;98847.63;5094862;28;20211;-57
2023/10/03 08:34:11;;;;;;;0.10;0.10;;;;;;;18.98;100.00;98844.22;5094712;28;20487;-57
2023/10/03 08:37:06;;;;;;;0.10;0.10;;;;;;;19.12;100.00;98846.31;5095420;28;20210;-57
2023/10/03 08:39:58;;;;;;;0.10;0.10;;;;;;;19.52;100.00;98826.84;5094930;28;20199;-57
2023/10/03 08:42:53;;;;;;;0.10;0.10;;;;;;;19.59;100.00;98832.41;5094839;28;20195;-57
2023/10/03 08:45:43;;;;;;;0.10;0.10;;;;;;;19.95;100.00;98839.22;5103842;28;20332;-57
2023/10/03 08:48:35;;;;;;;0.10;0.10;;;;;;;19.80;100.00;98829.31;5113389;28;20235;-56
2023/10/03 08:51:24;;;;;;;0.10;0.10;;;;;;;19.43;100.00;98841.25;5115200;28;20569;-56
2023/10/03 08:54:15;;;;;;;0.10;0.10;;;;;;;19.20;100.00;98857.06;5115430;28;20198;-57
2023/10/03 08:57:05;;;;;;;0.10;0.10;;;;;;;19.69;100.00;98833.16;5114927;28;20374;-57
2023/10/03 08:59:59;;;;;;;0.10;0.10;;;;;;;19.57;100.00;98847.88;5114992;28;20220;-57
2023/10/03 09:02:51;;;;;;;0.10;0.10;;;;;;;19.68;100.00;98836.81;5113666;28;20194;-57
2023/10/03 09:05:48;;;;;;;0.10;0.10;;;;;;;19.66;100.00;98838.81;5115041;28;20317;-57
2023/10/03 09:08:43;;;;;;;0.10;0.10;;;;;;;19.59;100.00;98838.66;5114589;28;20272;-57
2023/10/03 09:11:36;;;;;;;0.10;0.10;;;;;;;19.69;100.00;98847.41;5114257;28;20238;-57
2023/10/03 09:14:40;;;;;;;0.10;0.10;;;;;;;19.83;100.00;98851.31;5114898;28;20193;-57
2023/10/03 09:17:32;;;;;;;0.10;0.10;;;;;;;19.95;100.00;98854.53;5113269;28;20185;-56
2023/10/03 09:20:31;;;;;;;0.00;0.00;;;;;;;19.62;100.00;98861.66;5114738;28;20311;-57
2023/10/03 09:23:20;;;;;;;0.10;0.10;;;;;;;19.48;100.00;98867.63;5114814;28;20260;-57
2023/10/03 09:26:17;;;;;;;0.10;0.10;;;;;;;19.67;100.00;98875.44;5114475;28;20218;-57
2023/10/03 09:29:15;;;;;;;0.10;0.10;;;;;;;19.51;100.00;98878.91;5114764;28;20806;-57
2023/10/03 09:32:14;;;;;;;0.00;0.00;;;;;;;19.50;100.00;98866.47;5113047;28;20256;-57
2023/10/03 09:35:10;;;;;;;0.10;0.10;;;;;;;19.08;100.00;98874.47;5114175;28;20190;-56
2023/10/03 09:38:08;;;;;;;0.00;0.00;;;;;;;19.42;100.00;98871.81;5114530;28;20205;-56
2023/10/03 09:41:02;;;;;;;0.10;0.10;;;;;;;19.81;100.00;98860.56;5113705;28;20261;-57
2023/10/03 09:43:53;;;;;;;0.10;0.10;;;;;;;20.09;100.00;98855.72;5113365;28;20289;-57
2023/10/03 09:46:43;;;;;;;0.03;0.03;;;;;;;20.02;100.00;98866.31;5112755;28;20195;-57
2023/10/03 09:49:38;;;;;;;0.10;0.10;;;;;;;20.53;100.00;98870.56;5113722;28;20220;-57
2023/10/03 09:52:28;;;;;;;0.10;0.10;;;;;;;20.64;100.00;98852.38;5113966;28;20309;-57
2023/10/03 09:55:22;;;;;;;0.10;0.10;;;;;;;20.77;100.00;98845.50;5113838;28;20202;-57
2023/10/03 09:58:13;;;;;;;0.10;0.10;;;;;;;20.82;100.00;98861.97;5114004;28;20222;-57
2023/10/03 10:01:02;;;;;;;0.10;0.10;;;;;;;20.80;100.00;98855.06;5114130;28;20700;-57
2023/10/03 10:03:59;;;;;;;0.10;0.10;;;;;;;20.85;100.00;98863.50;5111141;28;20190;-57
2023/10/03 10:06:52;;;;;;;0.10;0.10;;;;;;;21.07;100.00;98864.63;5114023;28;20205;-57
2023/10/03 10:09:54;;;;;;;0.10;0.10;;;;;;;21.42;100.00;98871.41;5113140;28;20353;-57
2023/10/03 10:13:12;;;;;;;0.10;0.10;;;;;;;21.90;100.00;98877.59;5112430;28;20186;-57
2023/10/03 10:16:15;;;;;;;0.10;0.10;;;;;;;22.71;100.00;98877.03;5113774;28;20198;-57
2023/10/03 10:19:08;;;;;;;0.10;0.10;;;;;;;24.04;100.00;98866.25;5112769;28;20201;-57
2023/10/03 10:21:59;;;;;;;0.10;0.10;;;;;;;26.04;100.00;98869.34;5113937;28;20206;-57
2023/10/03 10:25:26;;;;;;;0.10;0.10;;;;;;;26.94;96.94;98873.47;5114468;28;20265;-57
2023/10/03 10:28:20;;;;;;;0.10;0.10;;;;;;;25.62;98.69;98874.81;5113486;28;20229;-57
2023/10/03 10:31:31;;;;;;;0.10;0.10;;;;;;;25.45;100.00;98878.91;5112643;28;20359;-57
2023/10/03 10:34:47;;;;;;;0.10;0.10;;;;;;;25.96;99.44;98881.22;5112999;28;20267;-57
2023/10/03 10:37:54;;;;;;;0.10;0.10;;;;;;;25.28;100.00;98877.53;5113296;28;20252;-57
2023/10/03 10:41:17;;;;;;;0.10;0.10;;;;;;;24.75;100.00;98867.16;5112004;28;20197;-57
2023/10/03 10:44:14;;;;;;;0.10;0.10;;;;;;;24.08;100.00;98869.41;5113217;28;20267;-57
2023/10/03 10:47:10;;;;;;;0.10;0.10;;;;;;;24.32;100.00;98871.78;5111875;28;20248;-57
2023/10/03 10:50:00;;;;;;;0.10;0.10;;;;;;;24.47;100.00;98872.53;5113065;28;20684;-57
2023/10/03 10:53:14;;;;;;;0.10;0.10;;;;;;;25.35;100.00;98860.28;5112218;28;20185;-57
2023/10/03 10:56:03;;;;;;;0.10;0.10;;;;;;;24.44;100.00;98856.69;5112779;28;20206;-57
2023/10/03 10:59:01;;;;;;;0.10;0.10;;;;;;;24.06;100.00;98869.59;5113346;28;20187;-57
2023/10/03 11:01:52;;;;;;;0.10;0.10;;;;;;;24.46;100.00;98861.91;5111887;28;20312;-57
2023/10/03 11:04:38;;;;;;;0.10;0.10;;;;;;;23.96;100.00;98869.06;5112741;28;20282;-57
2023/10/03 11:07:27;;;;;;;0.10;0.10;;;;;;;23.53;100.00;98877.03;5112121;28;20198;-57
2023/10/03 11:10:21;;;;;;;0.10;0.10;;;;;;;23.21;100.00;98870.16;5112807;28;20276;-57
2023/10/03 11:13:26;;;;;;;0.10;0.10;;;;;;;22.81;100.00;98865.97;5112329;28;20646;-57
2023/10/03 11:16:27;;;;;;;0.10;0.10;;;;;;;22.70;100.00;98869.13;5112712;28;20190;-57
2023/10/03 11:19:20;;;;;;;0.10;0.10;;;;;;;22.53;100.00;98863.03;5112847;28;20201;-57
2023/10/03 11:22:12;;;;;;;0.10;0.10;;;;;;;22.24;100.00;98858.38;5112483;28;20205;-57
2023/10/03 11:25:12;;;;;;;0.10;0.10;;;;;;;21.94;100.00;98860.91;5112815;28;20703;-56
2023/10/03 11:28:08;;;;;;;0.10;0.10;;;;;;;21.67;100.00;98880.25;5112665;28;20355;-57
2023/10/03 11:31:03;;;;;;;0.10;0.10;;;;;;;21.41;100.00;98880.53;5112360;28;20214;-57
2023/10/03 11:33:59;;;;;;;0.10;0.10;;;;;;;21.47;100.00;98874.44;5111304;28;20255;-57
2023/10/03 11:36:54;;;;;;;0.10;0.10;;;;;;;21.50;100.00;98871.38;5112444;28;20206;-57
2023/10/03 11:39:44;;;;;;;0.10;0.10;;;;;;;21.37;100.00;98858.47;5110052;28;20202;-56
2023/10/03 11:42:31;;;;;;;0.10;0.10;;;;;;;21.39;100.00;98856.44;5113023;28;20327;-57
2023/10/03 11:45:19;;;;;;;0.10;0.10;;;;;;;21.37;100.00;98857.66;5113306;28;20189;-57
2023/10/03 11:48:07;;;;;;;0.10;0.10;;;;;;;21.40;100.00;98852.72;5111793;28;20189;-57
2023/10/03 11:50:57;;;;;;;0.10;0.10;;;;;;;21.40;100.00;98852.72;5110603;28;20755;-57
2023/10/03 11:53:46;;;;;;;0.10;0.10;;;;;;;21.53;100.00;98845.97;5113030;28;20411;-56
2023/10/03 11:56:39;;;;;;;0.10;0.10;;;;;;;21.58;100.00;98833.63;5113108;28;20193;-56
2023/10/03 11:59:29;;;;;;;0.10;0.10;;;;;;;21.56;100.00;98841.06;5113136;28;20321;-57
2023/10/03 12:02:16;;;;;;;0.10;0.10;;;;;;;21.46;100.00;98851.22;5111429;28;20206;-56
2023/10/03 12:05:04;;;;;;;0.10;0.10;;;;;;;21.34;100.00;98848.06;5116110;28;20198;-57
2023/10/03 12:07:51;;;;;;;0.10;0.10;;;;;;;21.33;100.00;98843.69;5116710;28;20198;-57
2023/10/03 12:10:41;;;;;;;0.10;0.10;;;;;;;21.20;100.00;98856.81;5116853;28;20213;-56
2023/10/03 12:13:28;;;;;;;0.10;0.10;;;;;;;21.26;100.00;98847.22;5117100;28;20190;-56
2023/10/03 12:16:16;;;;;;;0.10;0.10;;;;;;;21.37;100.00;98844.16;5116891;28;20198;-56
2023/10/03 12:19:04;;;;;;;0.10;0.10;;;;;;;21.38;100.00;98841.28;5116490;28;20210;-56
2023/10/03 12:21:51;;;;;;;0.20;0.20;;;;;;;21.22;100.00;98854.78;5115670;28;20284;-56
2023/10/03 12:24:37;;;;;;;0.10;0.10;;;;;;;21.18;100.00;98844.53;5116654;28;20198;-57
2023/10/03 12:27:29;;;;;;;0.10;0.10;;;;;;;21.15;100.00;98840.34;5116270;28;20190;-57
2023/10/03 12:30:18;;;;;;;0.20;0.20;;;;;;;21.05;100.00;98788.53;5116001;28;20193;-56
2023/10/03 12:33:16;;;;;;;0.10;0.10;;;;;;;21.01;100.00;98801.50;5114021;28;20228;-57
2023/10/03 12:36:11;;;;;;;0.10;0.10;;;;;;;20.97;100.00;98812.81;5115361;28;20199;-57
2023/10/03 12:39:10;;;;;;;0.10;0.10;;;;;;;20.90;100.00;98809.13;5115646;28;20224;-57
2023/10/03 12:42:00;;;;;;;0.10;0.10;;;;;;;20.99;100.00;98814.31;5115418;28;20584;-57
2023/10/03 12:44:52;;;;;;;0.10;0.10;;;;;;;21.00;100.00;98813.28;5115192;28;20323;-56
2023/10/03 12:47:47;;;;;;;0.10;0.10;;;;;;;21.00;100.00;98834.00;5114168;28;20190;-57
2023/10/03 12:50:37;;;;;;;0.10;0.10;;;;;;;20.74;100.00;98829.66;5115202;28;20190;-57
2023/10/03 12:53:35;;;;;;;0.10;0.10;;;;;;;20.48;100.00;98842.50;5114940;28;20275;-57
2023/10/03 12:56:24;;;;;;;0.20;0.20;;;;;;;20.34;100.00;98860.09;5115316;28;20213;-57
2023/10/03 12:59:15;;;;;;;0.10;0.10;;;;;;;20.12;100.00;98877.75;5113979;28;20205;-57
2023/10/03 13:02:09;;;;;;;0.10;0.10;;;;;;;19.90;100.00;98889.97;5113901;28;20212;-57
2023/10/03 13:05:05;;;;;;;0.10;0.10;;;;;;;19.66;100.00;98898.78;5115062;28;20257;-57
2023/10/03 13:07:56;;;;;;;0.10;0.10;;;;;;;19.45;100.00;98928.72;5114692;28;20202;-57
2023/10/03 13:10:48;;;;;;;0.10;0.10;;;;;;;19.33;100.00;98937.22;5113949;28;20190;-58
2023/10/03 13:13:40;;;;;;;0.10;0.10;;;;;;;19.12;100.00;98951.88;5114505;28;20234;-58